Hiddenite, North Carolina
Current Conditions -  °F | °C
As of 10:35 PM on Sunday 23 Nov 2014 (Local Time) from KSVH Reporting Station
Overcast Overcast  
Wind Chill: 60°   Ceiling: 400
Heat Index: 60°   Visibility: 10mi
Dew Point: 60°   Wind: 6mph
Humidity: 98%   Direction: 200°SSW
Pressure: 29.72"   Gusts: NA
Location:  35.9°N, 81.09°W
Report Text: KSVH 240335Z AUTO 20005KT 10SM OVC004 16/16 A2972 RMK AO2 T01580155
Loading
Personal Weather Stations






























Interactive Weather Map New forecast layout! Learn more

10-Day Weather Forecast

Advertisements
Track Severe Weather on mobile